sensor_id;sensor_type;location;lat;lon;timestamp;P1;durP1;ratioP1;P2;durP2;ratioP2
24685;SDS011;12804;51.176;4.452;2024-03-22T00:01:45;40.70;;;23.27;;
24685;SDS011;12804;51.176;4.452;2024-03-22T00:04:12;42.25;;;23.15;;
24685;SDS011;12804;51.176;4.452;2024-03-22T00:06:38;41.33;;;22.85;;
24685;SDS011;12804;51.176;4.452;2024-03-22T00:09:05;42.28;;;23.73;;
24685;SDS011;12804;51.176;4.452;2024-03-22T00:11:31;39.33;;;22.27;;
24685;SDS011;12804;51.176;4.452;2024-03-22T00:13:57;41.60;;;22.45;;
24685;SDS011;12804;51.176;4.452;2024-03-22T00:16:23;40.08;;;23.20;;
24685;SDS011;12804;51.176;4.452;2024-03-22T00:18:49;36.97;;;21.02;;
24685;SDS011;12804;51.176;4.452;2024-03-22T00:21:16;36.85;;;21.30;;
24685;SDS011;12804;51.176;4.452;2024-03-22T00:23:42;37.45;;;20.92;;
24685;SDS011;12804;51.176;4.452;2024-03-22T00:26:11;36.22;;;21.38;;
24685;SDS011;12804;51.176;4.452;2024-03-22T00:28:36;35.75;;;20.35;;
24685;SDS011;12804;51.176;4.452;2024-03-22T00:31:02;35.08;;;20.92;;
24685;SDS011;12804;51.176;4.452;2024-03-22T00:33:28;34.25;;;20.52;;
24685;SDS011;12804;51.176;4.452;2024-03-22T00:35:54;32.60;;;20.20;;
24685;SDS011;12804;51.176;4.452;2024-03-22T00:38:20;38.17;;;20.65;;
24685;SDS011;12804;51.176;4.452;2024-03-22T00:40:46;33.17;;;20.70;;
24685;SDS011;12804;51.176;4.452;2024-03-22T00:43:12;38.03;;;20.35;;
24685;SDS011;12804;51.176;4.452;2024-03-22T00:45:38;33.35;;;20.23;;
24685;SDS011;12804;51.176;4.452;2024-03-22T00:48:04;35.65;;;20.35;;
24685;SDS011;12804;51.176;4.452;2024-03-22T00:50:30;36.35;;;20.67;;
24685;SDS011;12804;51.176;4.452;2024-03-22T00:52:56;36.20;;;21.20;;
24685;SDS011;12804;51.176;4.452;2024-03-22T00:55:22;34.72;;;20.33;;
24685;SDS011;12804;51.176;4.452;2024-03-22T00:57:48;35.38;;;21.00;;
24685;SDS011;12804;51.176;4.452;2024-03-22T01:00:14;37.58;;;20.95;;
24685;SDS011;12804;51.176;4.452;2024-03-22T01:02:41;41.08;;;21.88;;
24685;SDS011;12804;51.176;4.452;2024-03-22T01:05:09;36.95;;;21.05;;
24685;SDS011;12804;51.176;4.452;2024-03-22T01:07:36;39.78;;;20.70;;
24685;SDS011;12804;51.176;4.452;2024-03-22T01:10:05;42.72;;;21.20;;
24685;SDS011;12804;51.176;4.452;2024-03-22T01:12:31;35.42;;;21.15;;
24685;SDS011;12804;51.176;4.452;2024-03-22T01:14:57;34.17;;;21.08;;
24685;SDS011;12804;51.176;4.452;2024-03-22T01:17:23;35.47;;;20.80;;
24685;SDS011;12804;51.176;4.452;2024-03-22T01:19:49;37.50;;;21.75;;
24685;SDS011;12804;51.176;4.452;2024-03-22T01:22:16;37.30;;;21.40;;
24685;SDS011;12804;51.176;4.452;2024-03-22T01:24:42;41.15;;;21.65;;
24685;SDS011;12804;51.176;4.452;2024-03-22T01:27:09;40.35;;;21.23;;
24685;SDS011;12804;51.176;4.452;2024-03-22T01:29:35;37.17;;;20.65;;
24685;SDS011;12804;51.176;4.452;2024-03-22T01:32:01;34.00;;;20.55;;
24685;SDS011;12804;51.176;4.452;2024-03-22T01:34:27;37.60;;;21.17;;
24685;SDS011;12804;51.176;4.452;2024-03-22T01:36:53;35.80;;;19.63;;
24685;SDS011;12804;51.176;4.452;2024-03-22T01:39:20;37.63;;;19.88;;
24685;SDS011;12804;51.176;4.452;2024-03-22T01:41:47;38.33;;;19.67;;
24685;SDS011;12804;51.176;4.452;2024-03-22T01:44:13;31.63;;;18.20;;
24685;SDS011;12804;51.176;4.452;2024-03-22T01:46:39;33.85;;;19.35;;
24685;SDS011;12804;51.176;4.452;2024-03-22T01:49:06;41.58;;;20.48;;
24685;SDS011;12804;51.176;4.452;2024-03-22T01:51:34;34.65;;;19.33;;
24685;SDS011;12804;51.176;4.452;2024-03-22T01:54:01;34.47;;;19.38;;
24685;SDS011;12804;51.176;4.452;2024-03-22T01:56:28;34.55;;;19.33;;
24685;SDS011;12804;51.176;4.452;2024-03-22T01:58:55;32.42;;;18.35;;
24685;SDS011;12804;51.176;4.452;2024-03-22T02:01:22;33.40;;;19.02;;
24685;SDS011;12804;51.176;4.452;2024-03-22T02:03:49;32.13;;;18.30;;
24685;SDS011;12804;51.176;4.452;2024-03-22T02:06:14;35.83;;;18.15;;
24685;SDS011;12804;51.176;4.452;2024-03-22T02:08:40;34.88;;;18.50;;
24685;SDS011;12804;51.176;4.452;2024-03-22T02:11:07;34.40;;;19.00;;
24685;SDS011;12804;51.176;4.452;2024-03-22T02:13:34;32.00;;;18.33;;
24685;SDS011;12804;51.176;4.452;2024-03-22T02:16:02;31.27;;;18.00;;
24685;SDS011;12804;51.176;4.452;2024-03-22T02:18:28;30.02;;;16.77;;
24685;SDS011;12804;51.176;4.452;2024-03-22T02:20:56;29.05;;;17.20;;
24685;SDS011;12804;51.176;4.452;2024-03-22T02:23:26;30.92;;;16.90;;
24685;SDS011;12804;51.176;4.452;2024-03-22T02:26:05;30.33;;;17.75;;
24685;SDS011;12804;51.176;4.452;2024-03-22T02:28:31;26.92;;;16.65;;
24685;SDS011;12804;51.176;4.452;2024-03-22T02:30:59;27.27;;;16.65;;
24685;SDS011;12804;51.176;4.452;2024-03-22T02:33:25;30.20;;;17.30;;
24685;SDS011;12804;51.176;4.452;2024-03-22T02:35:51;30.00;;;16.88;;
24685;SDS011;12804;51.176;4.452;2024-03-22T02:38:18;28.02;;;16.92;;
24685;SDS011;12804;51.176;4.452;2024-03-22T02:40:44;26.20;;;16.52;;
24685;SDS011;12804;51.176;4.452;2024-03-22T02:43:11;25.30;;;15.82;;
24685;SDS011;12804;51.176;4.452;2024-03-22T02:45:37;29.23;;;16.73;;
24685;SDS011;12804;51.176;4.452;2024-03-22T02:48:03;26.45;;;15.30;;
24685;SDS011;12804;51.176;4.452;2024-03-22T02:50:33;26.83;;;15.75;;
24685;SDS011;12804;51.176;4.452;2024-03-22T02:53:00;27.42;;;16.77;;
24685;SDS011;12804;51.176;4.452;2024-03-22T02:55:26;26.50;;;16.75;;
24685;SDS011;12804;51.176;4.452;2024-03-22T02:57:51;27.48;;;15.55;;
24685;SDS011;12804;51.176;4.452;2024-03-22T03:00:17;26.75;;;16.10;;
24685;SDS011;12804;51.176;4.452;2024-03-22T03:02:44;26.85;;;15.57;;
24685;SDS011;12804;51.176;4.452;2024-03-22T03:05:10;28.90;;;15.68;;
24685;SDS011;12804;51.176;4.452;2024-03-22T03:07:36;29.58;;;14.95;;
24685;SDS011;12804;51.176;4.452;2024-03-22T03:10:02;24.38;;;14.80;;
24685;SDS011;12804;51.176;4.452;2024-03-22T03:12:28;24.85;;;14.02;;
24685;SDS011;12804;51.176;4.452;2024-03-22T03:14:54;23.92;;;14.32;;
24685;SDS011;12804;51.176;4.452;2024-03-22T03:17:20;26.40;;;15.27;;
24685;SDS011;12804;51.176;4.452;2024-03-22T03:19:46;27.50;;;14.50;;
24685;SDS011;12804;51.176;4.452;2024-03-22T03:22:13;26.92;;;14.57;;
24685;SDS011;12804;51.176;4.452;2024-03-22T03:24:39;28.05;;;14.55;;
24685;SDS011;12804;51.176;4.452;2024-03-22T03:27:04;28.17;;;15.23;;
24685;SDS011;12804;51.176;4.452;2024-03-22T03:29:30;24.75;;;14.48;;
24685;SDS011;12804;51.176;4.452;2024-03-22T03:31:56;26.95;;;14.93;;
24685;SDS011;12804;51.176;4.452;2024-03-22T03:34:22;29.88;;;15.05;;
24685;SDS011;12804;51.176;4.452;2024-03-22T03:36:48;28.65;;;15.07;;
24685;SDS011;12804;51.176;4.452;2024-03-22T03:39:13;26.77;;;14.18;;
24685;SDS011;12804;51.176;4.452;2024-03-22T03:41:39;28.60;;;14.07;;
24685;SDS011;12804;51.176;4.452;2024-03-22T03:44:05;24.70;;;14.23;;
24685;SDS011;12804;51.176;4.452;2024-03-22T03:46:31;24.80;;;14.27;;
24685;SDS011;12804;51.176;4.452;2024-03-22T03:48:57;23.27;;;13.32;;
24685;SDS011;12804;51.176;4.452;2024-03-22T03:51:22;24.98;;;14.32;;
24685;SDS011;12804;51.176;4.452;2024-03-22T03:53:48;28.48;;;14.65;;
24685;SDS011;12804;51.176;4.452;2024-03-22T03:56:14;25.17;;;13.88;;
24685;SDS011;12804;51.176;4.452;2024-03-22T03:58:40;26.67;;;14.45;;
24685;SDS011;12804;51.176;4.452;2024-03-22T04:01:06;26.23;;;13.60;;
24685;SDS011;12804;51.176;4.452;2024-03-22T04:03:33;23.65;;;13.40;;
24685;SDS011;12804;51.176;4.452;2024-03-22T04:05:59;21.48;;;12.45;;
24685;SDS011;12804;51.176;4.452;2024-03-22T04:08:25;21.23;;;12.82;;
24685;SDS011;12804;51.176;4.452;2024-03-22T04:10:55;23.38;;;12.73;;
24685;SDS011;12804;51.176;4.452;2024-03-22T04:13:25;23.15;;;12.57;;
24685;SDS011;12804;51.176;4.452;2024-03-22T04:15:52;20.25;;;11.95;;
24685;SDS011;12804;51.176;4.452;2024-03-22T04:18:18;19.60;;;11.60;;
24685;SDS011;12804;51.176;4.452;2024-03-22T04:20:57;21.98;;;11.65;;
24685;SDS011;12804;51.176;4.452;2024-03-22T04:23:25;20.88;;;12.10;;
24685;SDS011;12804;51.176;4.452;2024-03-22T04:25:51;18.27;;;10.88;;
24685;SDS011;12804;51.176;4.452;2024-03-22T04:28:21;22.30;;;11.38;;
24685;SDS011;12804;51.176;4.452;2024-03-22T04:30:57;19.27;;;11.20;;
24685;SDS011;12804;51.176;4.452;2024-03-22T04:33:27;19.42;;;11.68;;
24685;SDS011;12804;51.176;4.452;2024-03-22T04:35:53;17.48;;;10.75;;
24685;SDS011;12804;51.176;4.452;2024-03-22T04:38:20;18.45;;;10.85;;
24685;SDS011;12804;51.176;4.452;2024-03-22T04:40:46;19.02;;;11.15;;
24685;SDS011;12804;51.176;4.452;2024-03-22T04:43:12;20.25;;;11.45;;
24685;SDS011;12804;51.176;4.452;2024-03-22T04:45:37;18.92;;;10.55;;
24685;SDS011;12804;51.176;4.452;2024-03-22T04:48:04;19.45;;;10.73;;
24685;SDS011;12804;51.176;4.452;2024-03-22T04:50:30;16.60;;;9.70;;
24685;SDS011;12804;51.176;4.452;2024-03-22T04:52:56;16.98;;;10.40;;
24685;SDS011;12804;51.176;4.452;2024-03-22T04:55:22;16.13;;;9.98;;
24685;SDS011;12804;51.176;4.452;2024-03-22T04:57:48;16.52;;;9.95;;
24685;SDS011;12804;51.176;4.452;2024-03-22T05:00:14;20.27;;;9.48;;
24685;SDS011;12804;51.176;4.452;2024-03-22T05:02:40;15.82;;;9.48;;
24685;SDS011;12804;51.176;4.452;2024-03-22T05:05:06;17.08;;;9.77;;
24685;SDS011;12804;51.176;4.452;2024-03-22T05:07:33;14.80;;;9.75;;
24685;SDS011;12804;51.176;4.452;2024-03-22T05:09:59;17.00;;;10.40;;
24685;SDS011;12804;51.176;4.452;2024-03-22T05:12:25;17.40;;;9.55;;
24685;SDS011;12804;51.176;4.452;2024-03-22T05:14:51;16.80;;;9.50;;
24685;SDS011;12804;51.176;4.452;2024-03-22T05:17:16;14.82;;;9.48;;
24685;SDS011;12804;51.176;4.452;2024-03-22T05:19:42;18.02;;;10.27;;
24685;SDS011;12804;51.176;4.452;2024-03-22T05:22:08;17.35;;;9.13;;
24685;SDS011;12804;51.176;4.452;2024-03-22T05:24:34;16.02;;;10.13;;
24685;SDS011;12804;51.176;4.452;2024-03-22T05:26:59;15.70;;;9.20;;
24685;SDS011;12804;51.176;4.452;2024-03-22T05:29:25;16.88;;;9.75;;
24685;SDS011;12804;51.176;4.452;2024-03-22T05:31:51;14.82;;;9.07;;
24685;SDS011;12804;51.176;4.452;2024-03-22T05:34:17;14.93;;;8.93;;
24685;SDS011;12804;51.176;4.452;2024-03-22T05:36:44;16.80;;;9.70;;
24685;SDS011;12804;51.176;4.452;2024-03-22T05:39:10;15.02;;;9.55;;
24685;SDS011;12804;51.176;4.452;2024-03-22T05:41:36;17.35;;;10.13;;
24685;SDS011;12804;51.176;4.452;2024-03-22T05:44:02;14.82;;;9.45;;
24685;SDS011;12804;51.176;4.452;2024-03-22T05:46:29;17.30;;;10.07;;
24685;SDS011;12804;51.176;4.452;2024-03-22T05:48:55;16.67;;;9.77;;
24685;SDS011;12804;51.176;4.452;2024-03-22T05:51:22;17.10;;;9.77;;
24685;SDS011;12804;51.176;4.452;2024-03-22T05:53:47;16.52;;;9.40;;
24685;SDS011;12804;51.176;4.452;2024-03-22T05:56:13;17.05;;;8.73;;
24685;SDS011;12804;51.176;4.452;2024-03-22T05:58:39;16.00;;;9.43;;
24685;SDS011;12804;51.176;4.452;2024-03-22T06:01:05;16.15;;;8.68;;
24685;SDS011;12804;51.176;4.452;2024-03-22T06:03:31;17.45;;;9.40;;
24685;SDS011;12804;51.176;4.452;2024-03-22T06:05:58;14.48;;;8.75;;
24685;SDS011;12804;51.176;4.452;2024-03-22T06:08:28;16.02;;;8.93;;
24685;SDS011;12804;51.176;4.452;2024-03-22T06:10:57;14.27;;;8.65;;
24685;SDS011;12804;51.176;4.452;2024-03-22T06:13:22;14.20;;;8.40;;
24685;SDS011;12804;51.176;4.452;2024-03-22T06:15:48;14.02;;;8.25;;
24685;SDS011;12804;51.176;4.452;2024-03-22T06:18:15;15.02;;;8.65;;
24685;SDS011;12804;51.176;4.452;2024-03-22T06:20:41;13.23;;;8.50;;
24685;SDS011;12804;51.176;4.452;2024-03-22T06:23:08;16.30;;;8.98;;
24685;SDS011;12804;51.176;4.452;2024-03-22T06:25:35;13.05;;;7.88;;
24685;SDS011;12804;51.176;4.452;2024-03-22T06:28:01;13.68;;;8.27;;
24685;SDS011;12804;51.176;4.452;2024-03-22T06:30:27;14.77;;;8.80;;
24685;SDS011;12804;51.176;4.452;2024-03-22T06:32:53;12.98;;;7.60;;
24685;SDS011;12804;51.176;4.452;2024-03-22T06:35:22;13.30;;;7.78;;
24685;SDS011;12804;51.176;4.452;2024-03-22T06:37:48;13.43;;;7.88;;
24685;SDS011;12804;51.176;4.452;2024-03-22T06:40:14;14.45;;;8.15;;
24685;SDS011;12804;51.176;4.452;2024-03-22T06:42:40;11.65;;;7.63;;
24685;SDS011;12804;51.176;4.452;2024-03-22T06:45:06;12.20;;;7.95;;
24685;SDS011;12804;51.176;4.452;2024-03-22T06:47:32;13.13;;;8.40;;
24685;SDS011;12804;51.176;4.452;2024-03-22T06:49:58;12.90;;;8.30;;
24685;SDS011;12804;51.176;4.452;2024-03-22T06:52:24;11.70;;;7.38;;
24685;SDS011;12804;51.176;4.452;2024-03-22T06:54:50;14.45;;;8.57;;
24685;SDS011;12804;51.176;4.452;2024-03-22T06:57:17;11.70;;;7.63;;
24685;SDS011;12804;51.176;4.452;2024-03-22T06:59:43;10.02;;;6.97;;
24685;SDS011;12804;51.176;4.452;2024-03-22T07:02:08;8.98;;;5.45;;
24685;SDS011;12804;51.176;4.452;2024-03-22T07:04:35;8.80;;;5.90;;
24685;SDS011;12804;51.176;4.452;2024-03-22T07:07:01;8.80;;;5.80;;
24685;SDS011;12804;51.176;4.452;2024-03-22T07:09:26;8.27;;;5.53;;
24685;SDS011;12804;51.176;4.452;2024-03-22T07:11:54;9.40;;;5.22;;
24685;SDS011;12804;51.176;4.452;2024-03-22T07:14:20;7.07;;;4.70;;
24685;SDS011;12804;51.176;4.452;2024-03-22T07:16:50;8.88;;;4.65;;
24685;SDS011;12804;51.176;4.452;2024-03-22T07:19:18;7.40;;;5.00;;
24685;SDS011;12804;51.176;4.452;2024-03-22T07:21:44;5.88;;;4.53;;
24685;SDS011;12804;51.176;4.452;2024-03-22T07:24:10;7.80;;;4.47;;
24685;SDS011;12804;51.176;4.452;2024-03-22T07:26:35;8.05;;;4.53;;
24685;SDS011;12804;51.176;4.452;2024-03-22T07:29:01;8.38;;;4.82;;
24685;SDS011;12804;51.176;4.452;2024-03-22T07:31:27;7.07;;;4.53;;
24685;SDS011;12804;51.176;4.452;2024-03-22T07:33:53;6.57;;;4.47;;
24685;SDS011;12804;51.176;4.452;2024-03-22T07:36:20;6.75;;;4.70;;
24685;SDS011;12804;51.176;4.452;2024-03-22T07:38:46;7.47;;;4.57;;
24685;SDS011;12804;51.176;4.452;2024-03-22T07:41:11;8.45;;;5.30;;
24685;SDS011;12804;51.176;4.452;2024-03-22T07:43:37;7.32;;;4.50;;
24685;SDS011;12804;51.176;4.452;2024-03-22T07:46:03;7.13;;;4.72;;
24685;SDS011;12804;51.176;4.452;2024-03-22T07:48:29;6.55;;;4.75;;
24685;SDS011;12804;51.176;4.452;2024-03-22T07:50:58;6.50;;;4.63;;
24685;SDS011;12804;51.176;4.452;2024-03-22T07:53:24;6.90;;;4.38;;
24685;SDS011;12804;51.176;4.452;2024-03-22T07:55:50;7.15;;;4.70;;
24685;SDS011;12804;51.176;4.452;2024-03-22T07:58:16;7.22;;;5.18;;
24685;SDS011;12804;51.176;4.452;2024-03-22T08:00:42;6.30;;;4.65;;
24685;SDS011;12804;51.176;4.452;2024-03-22T08:03:08;6.03;;;4.70;;
24685;SDS011;12804;51.176;4.452;2024-03-22T08:05:40;6.85;;;5.05;;
24685;SDS011;12804;51.176;4.452;2024-03-22T08:08:06;8.80;;;5.10;;
24685;SDS011;12804;51.176;4.452;2024-03-22T08:10:32;7.00;;;5.07;;
24685;SDS011;12804;51.176;4.452;2024-03-22T08:12:58;8.35;;;5.40;;
24685;SDS011;12804;51.176;4.452;2024-03-22T08:15:25;7.80;;;4.93;;
24685;SDS011;12804;51.176;4.452;2024-03-22T08:17:51;6.85;;;4.90;;
24685;SDS011;12804;51.176;4.452;2024-03-22T08:20:17;8.82;;;5.07;;
24685;SDS011;12804;51.176;4.452;2024-03-22T08:22:44;8.88;;;4.82;;
24685;SDS011;12804;51.176;4.452;2024-03-22T08:25:10;7.10;;;4.32;;
24685;SDS011;12804;51.176;4.452;2024-03-22T08:27:36;9.00;;;4.90;;
24685;SDS011;12804;51.176;4.452;2024-03-22T08:30:01;6.15;;;4.93;;
24685;SDS011;12804;51.176;4.452;2024-03-22T08:32:28;9.27;;;4.60;;
24685;SDS011;12804;51.176;4.452;2024-03-22T08:34:54;7.13;;;5.03;;
24685;SDS011;12804;51.176;4.452;2024-03-22T08:37:21;5.18;;;4.13;;
24685;SDS011;12804;51.176;4.452;2024-03-22T08:39:46;8.30;;;5.25;;
24685;SDS011;12804;51.176;4.452;2024-03-22T08:42:12;5.88;;;4.57;;
24685;SDS011;12804;51.176;4.452;2024-03-22T08:44:38;8.23;;;4.72;;
24685;SDS011;12804;51.176;4.452;2024-03-22T08:47:04;7.25;;;4.70;;
24685;SDS011;12804;51.176;4.452;2024-03-22T08:49:30;5.55;;;4.05;;
24685;SDS011;12804;51.176;4.452;2024-03-22T08:51:56;10.77;;;5.63;;
24685;SDS011;12804;51.176;4.452;2024-03-22T08:54:21;7.13;;;4.72;;
24685;SDS011;12804;51.176;4.452;2024-03-22T08:56:47;8.52;;;4.47;;
24685;SDS011;12804;51.176;4.452;2024-03-22T08:59:13;8.98;;;4.75;;
24685;SDS011;12804;51.176;4.452;2024-03-22T09:01:39;7.40;;;4.70;;
24685;SDS011;12804;51.176;4.452;2024-03-22T09:04:04;7.10;;;4.78;;
24685;SDS011;12804;51.176;4.452;2024-03-22T09:06:30;11.10;;;5.22;;
24685;SDS011;12804;51.176;4.452;2024-03-22T09:08:56;8.55;;;4.50;;
24685;SDS011;12804;51.176;4.452;2024-03-22T09:11:23;8.32;;;4.80;;
24685;SDS011;12804;51.176;4.452;2024-03-22T09:13:53;7.68;;;4.60;;
24685;SDS011;12804;51.176;4.452;2024-03-22T09:16:23;7.68;;;4.63;;
24685;SDS011;12804;51.176;4.452;2024-03-22T09:18:50;8.15;;;4.82;;
24685;SDS011;12804;51.176;4.452;2024-03-22T09:21:16;6.97;;;4.68;;
24685;SDS011;12804;51.176;4.452;2024-03-22T09:23:42;6.35;;;4.30;;
24685;SDS011;12804;51.176;4.452;2024-03-22T09:26:07;10.30;;;5.07;;
24685;SDS011;12804;51.176;4.452;2024-03-22T09:28:33;10.82;;;4.97;;
24685;SDS011;12804;51.176;4.452;2024-03-22T09:31:05;6.28;;;4.70;;
24685;SDS011;12804;51.176;4.452;2024-03-22T09:33:35;9.07;;;4.97;;
24685;SDS011;12804;51.176;4.452;2024-03-22T09:36:01;7.13;;;4.75;;
24685;SDS011;12804;51.176;4.452;2024-03-22T09:38:28;6.65;;;4.60;;
24685;SDS011;12804;51.176;4.452;2024-03-22T09:40:54;8.57;;;4.72;;
24685;SDS011;12804;51.176;4.452;2024-03-22T09:43:20;8.80;;;4.45;;
24685;SDS011;12804;51.176;4.452;2024-03-22T09:45:47;8.30;;;4.60;;
24685;SDS011;12804;51.176;4.452;2024-03-22T09:48:16;8.45;;;4.85;;
24685;SDS011;12804;51.176;4.452;2024-03-22T09:50:43;8.02;;;4.80;;
24685;SDS011;12804;51.176;4.452;2024-03-22T09:53:13;10.50;;;4.68;;
24685;SDS011;12804;51.176;4.452;2024-03-22T09:55:43;9.45;;;4.75;;
24685;SDS011;12804;51.176;4.452;2024-03-22T09:58:10;13.00;;;5.53;;
24685;SDS011;12804;51.176;4.452;2024-03-22T10:00:36;8.27;;;4.93;;
24685;SDS011;12804;51.176;4.452;2024-03-22T10:03:02;8.73;;;4.57;;
24685;SDS011;12804;51.176;4.452;2024-03-22T10:05:30;11.27;;;5.30;;
24685;SDS011;12804;51.176;4.452;2024-03-22T10:07:56;8.52;;;4.32;;
24685;SDS011;12804;51.176;4.452;2024-03-22T10:10:22;7.60;;;5.15;;
24685;SDS011;12804;51.176;4.452;2024-03-22T10:12:48;7.15;;;4.68;;
24685;SDS011;12804;51.176;4.452;2024-03-22T10:15:14;11.27;;;4.40;;
24685;SDS011;12804;51.176;4.452;2024-03-22T10:17:42;7.38;;;4.75;;
24685;SDS011;12804;51.176;4.452;2024-03-22T10:20:07;10.40;;;5.07;;
24685;SDS011;12804;51.176;4.452;2024-03-22T10:22:43;12.00;;;4.85;;
24685;SDS011;12804;51.176;4.452;2024-03-22T10:25:25;8.65;;;4.65;;
24685;SDS011;12804;51.176;4.452;2024-03-22T10:27:53;7.82;;;4.38;;
24685;SDS011;12804;51.176;4.452;2024-03-22T10:30:20;10.80;;;4.57;;
24685;SDS011;12804;51.176;4.452;2024-03-22T10:32:49;8.90;;;4.97;;
24685;SDS011;12804;51.176;4.452;2024-03-22T10:35:16;12.48;;;4.93;;
24685;SDS011;12804;51.176;4.452;2024-03-22T10:37:42;14.13;;;4.80;;
24685;SDS011;12804;51.176;4.452;2024-03-22T10:40:08;9.15;;;5.15;;
24685;SDS011;12804;51.176;4.452;2024-03-22T10:42:35;10.00;;;5.15;;
24685;SDS011;12804;51.176;4.452;2024-03-22T10:45:03;10.60;;;5.50;;
24685;SDS011;12804;51.176;4.452;2024-03-22T10:47:34;8.20;;;4.88;;
24685;SDS011;12804;51.176;4.452;2024-03-22T10:50:07;9.73;;;5.30;;
24685;SDS011;12804;51.176;4.452;2024-03-22T10:55:30;9.65;;;5.47;;
24685;SDS011;12804;51.176;4.452;2024-03-22T10:58:00;10.77;;;5.30;;
24685;SDS011;12804;51.176;4.452;2024-03-22T11:00:27;8.63;;;4.95;;
24685;SDS011;12804;51.176;4.452;2024-03-22T11:02:54;13.13;;;6.18;;
24685;SDS011;12804;51.176;4.452;2024-03-22T11:05:21;11.30;;;5.40;;
24685;SDS011;12804;51.176;4.452;2024-03-22T11:07:47;11.98;;;5.13;;
24685;SDS011;12804;51.176;4.452;2024-03-22T11:10:13;10.18;;;5.80;;
24685;SDS011;12804;51.176;4.452;2024-03-22T11:12:41;11.23;;;5.80;;
24685;SDS011;12804;51.176;4.452;2024-03-22T11:15:09;15.38;;;6.10;;
24685;SDS011;12804;51.176;4.452;2024-03-22T11:17:37;11.38;;;5.78;;
24685;SDS011;12804;51.176;4.452;2024-03-22T11:20:03;11.23;;;6.10;;
24685;SDS011;12804;51.176;4.452;2024-03-22T11:22:31;12.88;;;6.25;;
24685;SDS011;12804;51.176;4.452;2024-03-22T11:24:57;14.10;;;5.95;;
24685;SDS011;12804;51.176;4.452;2024-03-22T11:27:23;10.60;;;5.85;;
24685;SDS011;12804;51.176;4.452;2024-03-22T11:29:49;7.35;;;5.45;;
24685;SDS011;12804;51.176;4.452;2024-03-22T11:32:16;9.95;;;5.60;;
24685;SDS011;12804;51.176;4.452;2024-03-22T11:34:42;11.68;;;5.82;;
24685;SDS011;12804;51.176;4.452;2024-03-22T11:37:09;10.82;;;5.65;;
24685;SDS011;12804;51.176;4.452;2024-03-22T11:39:38;13.73;;;6.22;;
24685;SDS011;12804;51.176;4.452;2024-03-22T11:42:05;13.48;;;6.30;;
24685;SDS011;12804;51.176;4.452;2024-03-22T11:44:33;13.93;;;5.40;;
24685;SDS011;12804;51.176;4.452;2024-03-22T11:47:02;13.82;;;5.95;;
24685;SDS011;12804;51.176;4.452;2024-03-22T11:49:29;10.57;;;6.80;;
24685;SDS011;12804;51.176;4.452;2024-03-22T11:51:58;9.88;;;5.63;;
24685;SDS011;12804;51.176;4.452;2024-03-22T11:54:24;11.98;;;6.00;;
24685;SDS011;12804;51.176;4.452;2024-03-22T11:56:51;12.57;;;5.90;;
24685;SDS011;12804;51.176;4.452;2024-03-22T11:59:19;8.95;;;5.28;;
24685;SDS011;12804;51.176;4.452;2024-03-22T12:01:46;11.30;;;5.78;;
24685;SDS011;12804;51.176;4.452;2024-03-22T12:04:12;11.15;;;6.20;;
24685;SDS011;12804;51.176;4.452;2024-03-22T12:06:46;13.82;;;6.07;;
24685;SDS011;12804;51.176;4.452;2024-03-22T12:09:12;9.27;;;5.32;;
24685;SDS011;12804;51.176;4.452;2024-03-22T12:11:39;10.45;;;5.40;;
24685;SDS011;12804;51.176;4.452;2024-03-22T12:14:05;12.40;;;5.82;;
24685;SDS011;12804;51.176;4.452;2024-03-22T12:16:31;10.63;;;6.22;;
24685;SDS011;12804;51.176;4.452;2024-03-22T12:18:57;10.35;;;5.40;;
24685;SDS011;12804;51.176;4.452;2024-03-22T12:21:24;7.65;;;5.35;;
24685;SDS011;12804;51.176;4.452;2024-03-22T12:23:50;11.27;;;5.85;;
24685;SDS011;12804;51.176;4.452;2024-03-22T12:26:16;10.63;;;5.20;;
24685;SDS011;12804;51.176;4.452;2024-03-22T12:28:43;10.98;;;5.32;;
24685;SDS011;12804;51.176;4.452;2024-03-22T12:31:09;8.20;;;5.13;;
24685;SDS011;12804;51.176;4.452;2024-03-22T12:33:38;14.60;;;5.90;;
24685;SDS011;12804;51.176;4.452;2024-03-22T12:36:04;11.07;;;5.72;;
24685;SDS011;12804;51.176;4.452;2024-03-22T12:38:30;9.45;;;5.82;;
24685;SDS011;12804;51.176;4.452;2024-03-22T12:40:56;11.75;;;5.50;;
24685;SDS011;12804;51.176;4.452;2024-03-22T12:43:22;11.90;;;6.03;;
24685;SDS011;12804;51.176;4.452;2024-03-22T12:45:48;10.98;;;5.18;;
24685;SDS011;12804;51.176;4.452;2024-03-22T12:48:14;11.55;;;5.40;;
24685;SDS011;12804;51.176;4.452;2024-03-22T12:50:40;10.52;;;5.82;;
24685;SDS011;12804;51.176;4.452;2024-03-22T12:53:05;11.27;;;5.32;;
24685;SDS011;12804;51.176;4.452;2024-03-22T12:55:31;12.57;;;5.75;;
24685;SDS011;12804;51.176;4.452;2024-03-22T12:57:58;9.73;;;5.38;;
24685;SDS011;12804;51.176;4.452;2024-03-22T13:00:24;11.55;;;5.53;;
24685;SDS011;12804;51.176;4.452;2024-03-22T13:02:50;7.93;;;5.25;;
24685;SDS011;12804;51.176;4.452;2024-03-22T13:05:17;14.77;;;6.22;;
24685;SDS011;12804;51.176;4.452;2024-03-22T13:07:43;12.10;;;6.47;;
24685;SDS011;12804;51.176;4.452;2024-03-22T13:10:09;11.25;;;5.88;;
24685;SDS011;12804;51.176;4.452;2024-03-22T13:12:35;10.82;;;5.90;;
24685;SDS011;12804;51.176;4.452;2024-03-22T13:15:01;10.73;;;6.60;;
24685;SDS011;12804;51.176;4.452;2024-03-22T13:17:27;11.13;;;6.25;;
24685;SDS011;12804;51.176;4.452;2024-03-22T13:19:53;11.00;;;7.47;;
24685;SDS011;12804;51.176;4.452;2024-03-22T13:22:19;14.32;;;7.53;;
24685;SDS011;12804;51.176;4.452;2024-03-22T13:24:45;17.42;;;8.52;;
24685;SDS011;12804;51.176;4.452;2024-03-22T13:27:12;14.43;;;7.70;;
24685;SDS011;12804;51.176;4.452;2024-03-22T13:29:41;14.52;;;7.55;;
24685;SDS011;12804;51.176;4.452;2024-03-22T13:32:06;19.10;;;8.50;;
24685;SDS011;12804;51.176;4.452;2024-03-22T13:34:36;18.23;;;9.40;;
24685;SDS011;12804;51.176;4.452;2024-03-22T13:37:02;16.35;;;8.52;;
24685;SDS011;12804;51.176;4.452;2024-03-22T13:39:29;14.10;;;8.48;;
24685;SDS011;12804;51.176;4.452;2024-03-22T13:41:58;13.75;;;8.40;;
24685;SDS011;12804;51.176;4.452;2024-03-22T13:44:24;15.10;;;9.15;;
24685;SDS011;12804;51.176;4.452;2024-03-22T13:46:52;17.85;;;8.93;;
24685;SDS011;12804;51.176;4.452;2024-03-22T13:49:19;13.65;;;8.50;;
24685;SDS011;12804;51.176;4.452;2024-03-22T13:51:48;14.00;;;8.50;;
24685;SDS011;12804;51.176;4.452;2024-03-22T13:54:14;16.42;;;9.93;;
24685;SDS011;12804;51.176;4.452;2024-03-22T13:56:40;11.95;;;8.63;;
24685;SDS011;12804;51.176;4.452;2024-03-22T13:59:07;12.05;;;8.30;;
24685;SDS011;12804;51.176;4.452;2024-03-22T14:01:36;12.32;;;8.85;;
24685;SDS011;12804;51.176;4.452;2024-03-22T14:04:05;12.88;;;9.27;;
24685;SDS011;12804;51.176;4.452;2024-03-22T14:06:31;12.25;;;8.70;;
24685;SDS011;12804;51.176;4.452;2024-03-22T14:08:58;13.00;;;8.82;;
24685;SDS011;12804;51.176;4.452;2024-03-22T14:11:28;10.40;;;7.47;;
24685;SDS011;12804;51.176;4.452;2024-03-22T14:13:58;10.95;;;7.82;;
24685;SDS011;12804;51.176;4.452;2024-03-22T14:16:24;11.73;;;7.57;;
24685;SDS011;12804;51.176;4.452;2024-03-22T14:18:51;9.65;;;7.47;;
24685;SDS011;12804;51.176;4.452;2024-03-22T14:21:17;8.90;;;6.88;;
24685;SDS011;12804;51.176;4.452;2024-03-22T14:23:47;12.50;;;7.53;;
24685;SDS011;12804;51.176;4.452;2024-03-22T14:26:13;11.27;;;7.55;;
24685;SDS011;12804;51.176;4.452;2024-03-22T14:28:40;15.13;;;7.70;;
24685;SDS011;12804;51.176;4.452;2024-03-22T14:31:10;10.77;;;7.55;;
24685;SDS011;12804;51.176;4.452;2024-03-22T14:33:36;9.80;;;7.13;;